createdAt,value
2022-10-19T00:01:10.878Z,16.06
2022-10-19T00:03:38.423Z,15.97
2022-10-19T00:06:17.157Z,15.96
2022-10-19T00:08:44.650Z,15.96
2022-10-19T00:11:12.278Z,15.96
2022-10-19T00:13:39.484Z,16.03
2022-10-19T00:16:17.073Z,15.91
2022-10-19T00:18:44.975Z,15.94
2022-10-19T00:21:19.274Z,16.00
2022-10-19T00:23:46.669Z,16.00
2022-10-19T00:26:14.190Z,16.06
2022-10-19T00:28:42.131Z,16.04
2022-10-19T00:31:11.929Z,16.02
2022-10-19T00:33:39.275Z,16.03
2022-10-19T00:36:06.965Z,16.01
2022-10-19T00:38:34.120Z,16.05
2022-10-19T00:41:02.417Z,15.99
2022-10-19T00:43:30.987Z,15.96
2022-10-19T00:45:58.192Z,15.88
2022-10-19T00:48:29.995Z,15.86
2022-10-19T00:50:58.836Z,15.81
2022-10-19T00:53:28.196Z,15.79
2022-10-19T00:55:56.050Z,15.78
2022-10-19T00:58:23.309Z,15.74
2022-10-19T01:00:50.667Z,15.71
2022-10-19T01:03:18.221Z,15.69
2022-10-19T01:05:45.911Z,15.71
2022-10-19T01:08:13.665Z,15.69
2022-10-19T01:10:53.220Z,15.53
2022-10-19T01:13:29.585Z,15.49
2022-10-19T01:15:56.746Z,15.53
2022-10-19T01:18:33.681Z,15.53
2022-10-19T01:21:03.902Z,15.49
2022-10-19T01:23:44.533Z,15.48
2022-10-19T01:26:37.914Z,15.46
2022-10-19T01:29:16.973Z,15.50
2022-10-19T01:32:02.667Z,15.51
2022-10-19T01:34:33.960Z,15.52
2022-10-19T01:37:05.310Z,15.50
2022-10-19T01:39:45.323Z,15.52
2022-10-19T01:42:18.603Z,15.51
2022-10-19T01:44:50.494Z,15.52
2022-10-19T01:47:30.926Z,15.53
2022-10-19T01:50:16.587Z,15.52
2022-10-19T01:52:44.061Z,15.57
2022-10-19T01:55:13.491Z,15.58
2022-10-19T01:57:43.100Z,15.57
2022-10-19T02:00:11.739Z,15.55
2022-10-19T02:02:40.962Z,15.53
2022-10-19T02:05:08.361Z,15.51
2022-10-19T02:07:36.297Z,15.52
2022-10-19T02:10:03.910Z,15.52
2022-10-19T02:12:32.566Z,15.46
2022-10-19T02:15:01.919Z,15.44
2022-10-19T02:17:32.026Z,15.38
2022-10-19T02:19:59.765Z,15.38
2022-10-19T02:22:27.436Z,15.43
2022-10-19T02:24:55.136Z,15.42
2022-10-19T02:27:22.562Z,15.34
2022-10-19T02:29:49.774Z,15.26
2022-10-19T02:32:16.984Z,15.23
2022-10-19T02:34:44.313Z,15.25
2022-10-19T02:37:11.534Z,15.29
2022-10-19T02:39:39.813Z,15.26
2022-10-19T02:42:22.591Z,15.17
2022-10-19T02:45:09.571Z,15.20
2022-10-19T02:47:38.878Z,15.24
2022-10-19T02:50:06.969Z,15.24
2022-10-19T02:52:36.425Z,15.22
2022-10-19T02:55:03.768Z,15.19
2022-10-19T02:57:32.703Z,15.15
2022-10-19T03:00:00.271Z,15.12
2022-10-19T03:02:27.422Z,15.07
2022-10-19T03:04:54.563Z,15.06
2022-10-19T03:07:21.821Z,15.04
2022-10-19T03:09:49.499Z,15.02
2022-10-19T03:12:16.733Z,15.00
2022-10-19T03:14:43.978Z,14.96
2022-10-19T03:17:11.499Z,14.98
2022-10-19T03:19:38.620Z,15.00
2022-10-19T03:22:05.823Z,15.02
2022-10-19T03:24:33.256Z,15.03
2022-10-19T03:27:00.413Z,15.02
2022-10-19T03:29:27.532Z,15.02
2022-10-19T03:31:54.609Z,15.00
2022-10-19T03:34:21.648Z,14.99
2022-10-19T03:36:48.891Z,14.98
2022-10-19T03:39:16.845Z,14.96
2022-10-19T03:41:44.055Z,14.99
2022-10-19T03:44:11.631Z,15.02
2022-10-19T03:46:39.202Z,14.96
2022-10-19T03:49:06.740Z,14.91
2022-10-19T03:51:34.160Z,14.92
2022-10-19T03:54:02.855Z,14.90
2022-10-19T03:56:30.881Z,14.91
2022-10-19T03:58:59.124Z,14.91
2022-10-19T04:01:37.278Z,14.89
2022-10-19T04:04:05.770Z,14.85
2022-10-19T04:06:34.543Z,14.82
2022-10-19T04:09:01.933Z,14.75
2022-10-19T04:11:30.151Z,14.76
2022-10-19T04:13:57.863Z,14.75
2022-10-19T04:16:25.792Z,14.77
2022-10-19T04:18:52.933Z,14.77
2022-10-19T04:21:20.440Z,14.82
2022-10-19T04:23:47.992Z,14.89
2022-10-19T04:26:15.178Z,14.89
2022-10-19T04:28:42.370Z,14.88
2022-10-19T04:31:10.605Z,14.84
2022-10-19T04:33:37.781Z,14.79
2022-10-19T04:36:06.539Z,14.81
2022-10-19T04:38:33.894Z,14.83
2022-10-19T04:41:09.328Z,14.82
2022-10-19T04:43:37.084Z,14.78
2022-10-19T04:46:08.375Z,14.74
2022-10-19T04:48:36.298Z,14.69
2022-10-19T04:51:04.000Z,14.63
2022-10-19T04:53:31.682Z,14.57
2022-10-19T04:55:58.803Z,14.44
2022-10-19T04:58:26.028Z,14.45
2022-10-19T05:00:53.186Z,14.45
2022-10-19T05:03:20.329Z,14.48
2022-10-19T05:05:47.490Z,14.51
2022-10-19T05:08:14.674Z,14.54
2022-10-19T05:10:45.441Z,14.58
2022-10-19T05:13:14.803Z,14.60
2022-10-19T05:15:41.893Z,14.61
2022-10-19T05:18:08.939Z,14.62
2022-10-19T05:20:36.038Z,14.57
2022-10-19T05:23:06.377Z,14.59
2022-10-19T05:25:34.645Z,14.58
2022-10-19T05:28:01.856Z,14.59
2022-10-19T05:30:28.944Z,14.56
2022-10-19T05:32:56.074Z,14.52
2022-10-19T05:35:23.182Z,14.50
2022-10-19T05:37:54.270Z,14.48
2022-10-19T05:40:21.417Z,14.45
2022-10-19T05:42:48.549Z,14.44
2022-10-19T05:45:15.746Z,14.43
2022-10-19T05:47:42.861Z,14.44
2022-10-19T05:50:09.966Z,14.44
2022-10-19T05:52:37.103Z,14.44
2022-10-19T05:55:04.406Z,14.44
2022-10-19T05:57:32.287Z,14.47
2022-10-19T05:59:59.552Z,14.49
2022-10-19T06:02:26.717Z,14.50
2022-10-19T06:04:53.882Z,14.55
2022-10-19T06:07:21.201Z,14.58
2022-10-19T06:09:48.365Z,14.59
2022-10-19T06:12:16.357Z,14.49
2022-10-19T06:14:43.764Z,14.49
2022-10-19T06:17:11.042Z,14.57
2022-10-19T06:19:38.238Z,14.53
2022-10-19T06:22:05.404Z,14.54
2022-10-19T06:24:32.620Z,14.53
2022-10-19T06:26:59.819Z,14.49
2022-10-19T06:29:26.982Z,14.44
2022-10-19T06:31:56.035Z,14.46
2022-10-19T06:34:23.290Z,14.45
2022-10-19T06:36:50.592Z,14.49
2022-10-19T06:39:17.702Z,14.54
2022-10-19T06:41:44.813Z,14.59
2022-10-19T06:44:18.956Z,14.65
2022-10-19T06:46:46.098Z,14.72
2022-10-19T06:49:13.808Z,14.74
2022-10-19T06:51:41.063Z,14.77
2022-10-19T06:54:08.220Z,14.81
2022-10-19T06:56:35.365Z,14.93
2022-10-19T06:59:02.565Z,15.02
2022-10-19T07:01:29.822Z,15.08
2022-10-19T07:03:57.115Z,15.13
2022-10-19T07:06:24.266Z,15.18
2022-10-19T07:08:52.351Z,15.25
2022-10-19T07:11:20.682Z,15.32
2022-10-19T07:13:47.957Z,15.40
2022-10-19T07:16:19.640Z,15.44
2022-10-19T07:18:49.473Z,15.51
2022-10-19T07:21:17.106Z,15.58
2022-10-19T07:23:47.455Z,15.65
2022-10-19T07:26:23.444Z,15.56
2022-10-19T07:28:51.005Z,15.52
2022-10-19T07:31:20.326Z,15.49
2022-10-19T07:33:48.036Z,15.54
2022-10-19T07:36:15.207Z,15.57
2022-10-19T07:38:51.572Z,15.62
2022-10-19T07:41:20.504Z,15.81
2022-10-19T07:43:48.299Z,15.99
2022-10-19T07:46:17.072Z,16.14
2022-10-19T07:48:44.511Z,16.68
2022-10-19T07:51:13.061Z,17.73
2022-10-19T07:53:40.270Z,18.96
2022-10-19T07:56:08.939Z,19.03
2022-10-19T07:58:36.657Z,18.82
2022-10-19T08:01:07.290Z,18.87
2022-10-19T08:06:22.425Z,18.51
2022-10-19T08:08:50.058Z,19.56
2022-10-19T08:11:30.678Z,19.93
2022-10-19T08:13:59.313Z,19.65
2022-10-19T08:16:40.558Z,19.41
2022-10-19T08:19:09.278Z,19.21
2022-10-19T08:21:37.052Z,18.95
2022-10-19T08:24:04.861Z,18.98
2022-10-19T08:26:32.908Z,20.48
2022-10-19T08:29:00.834Z,21.25
2022-10-19T08:31:28.427Z,20.69
2022-10-19T08:33:55.780Z,20.97
2022-10-19T08:36:22.949Z,20.98
2022-10-19T08:38:50.330Z,21.16
2022-10-19T08:41:29.313Z,21.25
2022-10-19T08:43:56.462Z,21.67
2022-10-19T08:46:27.594Z,21.89
2022-10-19T08:48:55.704Z,21.48
2022-10-19T08:51:22.753Z,21.36
2022-10-19T08:53:54.633Z,21.20
2022-10-19T08:56:52.323Z,20.94
2022-10-19T08:59:15.538Z,20.67
2022-10-19T09:01:49.876Z,20.58
2022-10-19T09:04:30.137Z,20.43
2022-10-19T09:06:57.534Z,20.13
2022-10-19T09:09:25.343Z,19.99
2022-10-19T09:11:55.755Z,19.94
2022-10-19T09:14:26.003Z,19.85
2022-10-19T09:16:54.641Z,19.73
2022-10-19T09:19:25.859Z,19.64
2022-10-19T09:21:57.811Z,19.56
2022-10-19T09:24:30.769Z,19.43
2022-10-19T09:27:02.400Z,19.51
2022-10-19T09:29:42.358Z,19.68
2022-10-19T09:32:15.585Z,19.80
2022-10-19T09:34:58.896Z,19.88
2022-10-19T09:37:26.902Z,19.98
2022-10-19T09:39:55.806Z,20.04
2022-10-19T09:42:25.776Z,20.09
2022-10-19T09:44:52.998Z,20.02
2022-10-19T09:47:26.894Z,20.07
2022-10-19T09:50:05.331Z,20.02
2022-10-19T09:52:35.374Z,20.01
2022-10-19T09:55:14.699Z,19.87
2022-10-19T09:57:46.038Z,19.95
2022-10-19T10:00:26.354Z,20.08
2022-10-19T10:02:54.832Z,20.18
2022-10-19T10:05:33.241Z,20.29
2022-10-19T10:08:00.620Z,20.38
2022-10-19T10:10:30.571Z,20.47
2022-10-19T10:12:58.720Z,20.50
2022-10-19T10:15:31.426Z,20.54
2022-10-19T10:17:59.088Z,20.58
2022-10-19T10:20:28.335Z,20.50
2022-10-19T10:22:59.636Z,20.60
2022-10-19T10:25:28.729Z,20.51
2022-10-19T10:28:19.152Z,20.53
2022-10-19T10:30:51.054Z,20.51
2022-10-19T10:33:43.729Z,20.58
2022-10-19T10:36:12.571Z,20.71
2022-10-19T10:38:47.340Z,20.81
2022-10-19T10:41:18.269Z,20.88
2022-10-19T10:43:59.718Z,20.93
2022-10-19T10:46:34.658Z,21.00
2022-10-19T10:49:04.699Z,21.05
2022-10-19T10:51:38.556Z,21.10
2022-10-19T10:54:22.114Z,21.11
2022-10-19T10:57:09.761Z,21.11
2022-10-19T10:59:52.672Z,21.14
2022-10-19T11:02:38.438Z,21.12
2022-10-19T11:05:24.362Z,21.23
2022-10-19T11:07:57.856Z,21.26
2022-10-19T11:10:36.486Z,21.26
2022-10-19T11:13:04.347Z,21.27
2022-10-19T11:15:35.404Z,21.07
2022-10-19T11:18:08.699Z,21.02
2022-10-19T11:20:39.403Z,21.15
2022-10-19T11:23:19.512Z,21.21
2022-10-19T11:26:07.618Z,21.47
2022-10-19T11:28:34.896Z,21.54
2022-10-19T11:31:07.852Z,21.60
2022-10-19T11:33:53.352Z,21.55
2022-10-19T11:36:40.647Z,21.51
2022-10-19T11:39:23.973Z,21.50
2022-10-19T11:41:59.113Z,21.43
2022-10-19T11:44:46.974Z,21.57
2022-10-19T11:47:32.485Z,21.71
2022-10-19T11:49:59.990Z,21.66
2022-10-19T11:52:27.365Z,21.65
2022-10-19T11:55:01.346Z,21.71
2022-10-19T11:57:37.136Z,21.78
2022-10-19T12:00:39.783Z,21.86
2022-10-19T12:03:10.292Z,21.79
2022-10-19T12:05:51.224Z,21.77
2022-10-19T12:08:43.107Z,21.77
2022-10-19T12:11:13.570Z,21.88
2022-10-19T12:13:44.322Z,21.93
2022-10-19T12:16:13.340Z,21.91
2022-10-19T12:18:46.289Z,21.90
2022-10-19T12:21:13.337Z,22.05
2022-10-19T12:23:44.147Z,22.22
2022-10-19T12:26:14.833Z,22.30
2022-10-19T12:28:49.182Z,22.33
2022-10-19T12:31:18.058Z,22.31
2022-10-19T12:33:47.959Z,22.25
2022-10-19T12:36:25.980Z,22.18
2022-10-19T12:39:08.340Z,22.16
2022-10-19T12:41:41.561Z,22.28
2022-10-19T12:44:14.760Z,22.50
2022-10-19T12:46:48.426Z,22.50
2022-10-19T12:49:28.853Z,22.46
2022-10-19T12:51:59.662Z,22.52
2022-10-19T12:54:28.233Z,22.54
2022-10-19T12:56:56.798Z,22.46
2022-10-19T12:59:34.293Z,22.61
2022-10-19T13:02:04.449Z,22.60
2022-10-19T13:04:33.108Z,22.54
2022-10-19T13:07:02.375Z,22.54
2022-10-19T13:09:34.722Z,22.60
2022-10-19T13:12:17.665Z,22.87
2022-10-19T13:14:51.760Z,22.74
2022-10-19T13:17:38.223Z,22.75
2022-10-19T13:20:15.723Z,22.79
2022-10-19T13:22:47.311Z,22.84
2022-10-19T13:25:27.746Z,22.80
2022-10-19T13:28:06.998Z,22.95
2022-10-19T13:30:38.140Z,22.96
2022-10-19T13:33:29.914Z,22.89
2022-10-19T13:36:00.013Z,22.80
2022-10-19T13:38:28.707Z,22.77
2022-10-19T13:41:15.341Z,22.74
2022-10-19T13:43:46.448Z,22.63
2022-10-19T13:46:18.709Z,22.58
2022-10-19T13:48:45.770Z,22.57
2022-10-19T13:51:16.981Z,22.62
2022-10-19T13:53:49.413Z,22.73
2022-10-19T13:56:29.168Z,22.68
2022-10-19T13:59:14.835Z,22.62
2022-10-19T14:01:43.019Z,22.69
2022-10-19T14:04:10.518Z,22.76
2022-10-19T14:06:40.396Z,22.76
2022-10-19T14:09:26.601Z,22.76
2022-10-19T14:12:04.296Z,22.77
2022-10-19T14:14:39.477Z,22.85
2022-10-19T14:17:13.908Z,22.93
2022-10-19T14:19:45.854Z,22.98
2022-10-19T14:22:35.953Z,22.91
2022-10-19T14:25:06.717Z,22.86
2022-10-19T14:27:34.919Z,22.78
2022-10-19T14:30:02.306Z,22.75
2022-10-19T14:32:30.144Z,22.88
2022-10-19T14:37:37.860Z,22.99
2022-10-19T14:40:05.273Z,22.91
2022-10-19T14:42:40.469Z,22.81
2022-10-19T14:45:17.469Z,22.71
2022-10-19T14:47:54.930Z,22.68
2022-10-19T14:50:24.795Z,22.86
2022-10-19T14:52:55.389Z,22.84
2022-10-19T14:55:23.376Z,22.92
2022-10-19T14:57:51.835Z,23.01
2022-10-19T15:00:21.072Z,23.03
2022-10-19T15:02:54.154Z,23.03
2022-10-19T15:05:23.707Z,22.85
2022-10-19T15:07:51.185Z,22.69
2022-10-19T15:10:24.283Z,22.81
2022-10-19T15:12:52.688Z,22.89
2022-10-19T15:15:24.936Z,22.90
2022-10-19T15:17:55.795Z,22.74
2022-10-19T15:20:25.209Z,22.70
2022-10-19T15:22:52.521Z,22.68
2022-10-19T15:25:24.956Z,22.68
2022-10-19T15:27:53.663Z,22.67
2022-10-19T15:30:28.446Z,22.59
2022-10-19T15:33:01.512Z,22.49
2022-10-19T15:35:30.324Z,22.41
2022-10-19T15:38:04.793Z,22.35
2022-10-19T15:40:36.207Z,22.30
2022-10-19T15:43:22.136Z,22.22
2022-10-19T15:45:58.899Z,22.14
2022-10-19T15:48:27.279Z,22.08
2022-10-19T15:50:55.051Z,22.03
2022-10-19T15:53:22.611Z,21.98
2022-10-19T15:55:49.756Z,21.93
2022-10-19T15:58:17.936Z,21.88
2022-10-19T16:00:45.016Z,21.84
2022-10-19T16:03:12.148Z,21.80
2022-10-19T16:05:39.317Z,21.76
2022-10-19T16:08:10.103Z,21.70
2022-10-19T16:10:39.502Z,21.65
2022-10-19T16:13:06.647Z,21.60
2022-10-19T16:15:33.769Z,21.55
2022-10-19T16:18:01.057Z,21.50
2022-10-19T16:20:29.398Z,21.44
2022-10-19T16:22:57.037Z,21.40
2022-10-19T16:25:24.221Z,21.37
2022-10-19T16:27:51.582Z,21.33
2022-10-19T16:30:18.832Z,21.32
2022-10-19T16:32:49.683Z,21.26
2022-10-19T16:35:16.871Z,21.23
2022-10-19T16:37:44.027Z,21.18
2022-10-19T16:40:11.390Z,21.13
2022-10-19T16:42:39.140Z,21.08
2022-10-19T16:45:06.570Z,21.04
2022-10-19T16:47:33.654Z,21.00
2022-10-19T16:50:01.587Z,20.93
2022-10-19T16:52:29.359Z,20.87
2022-10-19T16:54:56.828Z,20.83
2022-10-19T16:57:23.916Z,20.79
2022-10-19T17:02:22.174Z,20.70
2022-10-19T17:04:49.340Z,20.65
2022-10-19T17:07:16.537Z,20.59
2022-10-19T17:09:43.722Z,20.54
2022-10-19T17:12:11.664Z,20.50
2022-10-19T17:14:39.844Z,20.47
2022-10-19T17:17:07.232Z,20.44
2022-10-19T17:19:34.520Z,20.41
2022-10-19T17:22:02.951Z,20.38
2022-10-19T17:24:30.157Z,20.36
2022-10-19T17:26:57.276Z,20.35
2022-10-19T17:29:24.444Z,20.32
2022-10-19T17:31:52.617Z,20.26
2022-10-19T17:34:19.808Z,20.21
2022-10-19T17:36:47.238Z,20.18
2022-10-19T17:39:17.935Z,20.12
2022-10-19T17:41:46.046Z,20.09
2022-10-19T17:44:13.332Z,20.08
2022-10-19T17:46:40.436Z,20.05
2022-10-19T17:49:07.585Z,20.02
2022-10-19T17:51:35.827Z,19.99
2022-10-19T17:54:05.343Z,20.01
2022-10-19T17:56:32.476Z,19.99
2022-10-19T17:59:00.017Z,19.96
2022-10-19T18:01:27.146Z,19.90
2022-10-19T18:03:54.443Z,19.87
2022-10-19T18:06:26.408Z,19.77
2022-10-19T18:08:54.526Z,19.76
2022-10-19T18:11:21.738Z,19.67
2022-10-19T18:13:49.539Z,19.61
2022-10-19T18:16:20.799Z,19.56
2022-10-19T18:18:48.908Z,19.54
2022-10-19T18:21:17.487Z,19.48
2022-10-19T18:23:45.488Z,19.42
2022-10-19T18:26:14.859Z,19.39
2022-10-19T18:28:42.230Z,19.30
2022-10-19T18:31:10.648Z,19.22
2022-10-19T18:33:38.229Z,19.11
2022-10-19T18:36:06.151Z,19.05
2022-10-19T18:38:33.420Z,19.00
2022-10-19T18:41:01.700Z,18.97
2022-10-19T18:43:28.898Z,18.95
2022-10-19T18:45:57.485Z,18.90
2022-10-19T18:48:25.275Z,18.90
2022-10-19T18:50:52.407Z,18.86
2022-10-19T18:53:19.588Z,18.82
2022-10-19T18:55:56.123Z,18.77
2022-10-19T18:58:23.198Z,18.74
2022-10-19T19:00:50.359Z,18.70
2022-10-19T19:03:17.762Z,18.67
2022-10-19T19:05:45.130Z,18.65
2022-10-19T19:08:12.602Z,18.63
2022-10-19T19:10:40.203Z,18.65
2022-10-19T19:13:08.168Z,18.62
2022-10-19T19:15:35.561Z,18.60
2022-10-19T19:18:02.898Z,18.56
2022-10-19T19:20:30.538Z,18.45
2022-10-19T19:22:59.399Z,18.46
2022-10-19T19:25:26.632Z,18.44
2022-10-19T19:27:54.496Z,18.35
2022-10-19T19:30:22.157Z,18.35
2022-10-19T19:32:49.815Z,18.31
2022-10-19T19:35:17.589Z,18.27
2022-10-19T19:37:45.322Z,18.30
2022-10-19T19:40:13.093Z,18.30
2022-10-19T19:42:40.877Z,18.24
2022-10-19T19:45:08.803Z,18.20
2022-10-19T19:47:37.743Z,18.14
2022-10-19T19:50:08.970Z,18.03
2022-10-19T19:52:40.246Z,17.99
2022-10-19T19:55:08.387Z,17.99
2022-10-19T19:57:35.810Z,18.03
2022-10-19T20:00:03.323Z,18.06
2022-10-19T20:02:39.358Z,18.08
2022-10-19T20:05:06.603Z,18.01
2022-10-19T20:07:33.912Z,17.95
2022-10-19T20:10:01.469Z,17.94
2022-10-19T20:12:29.815Z,17.90
2022-10-19T20:14:56.978Z,17.90
2022-10-19T20:17:25.111Z,17.92
2022-10-19T20:19:52.196Z,17.87
2022-10-19T20:24:47.426Z,17.83
2022-10-19T20:27:15.026Z,17.84
2022-10-19T20:29:42.198Z,17.82
2022-10-19T20:32:09.404Z,17.84
2022-10-19T20:34:36.719Z,17.82
2022-10-19T20:37:03.813Z,17.82
2022-10-19T20:39:30.994Z,17.78
2022-10-19T20:41:58.165Z,17.84
2022-10-19T20:44:25.416Z,17.88
2022-10-19T20:46:52.497Z,17.89
2022-10-19T20:49:19.660Z,17.91
2022-10-19T20:51:47.658Z,17.93
2022-10-19T20:54:14.829Z,17.81
2022-10-19T20:56:42.218Z,17.72
2022-10-19T20:59:13.750Z,17.66
2022-10-19T21:01:41.645Z,17.65
2022-10-19T21:04:10.914Z,17.70
2022-10-19T21:06:42.550Z,17.74
2022-10-19T21:09:10.306Z,17.81
2022-10-19T21:11:38.948Z,17.80
2022-10-19T21:14:07.548Z,17.65
2022-10-19T21:16:37.808Z,17.59
2022-10-19T21:19:05.935Z,17.51
2022-10-19T21:21:34.558Z,17.55
2022-10-19T21:24:07.061Z,17.49
2022-10-19T21:26:35.720Z,17.49
2022-10-19T21:29:03.522Z,17.51
2022-10-19T21:31:31.054Z,17.51
2022-10-19T21:33:58.264Z,17.40
2022-10-19T21:36:25.490Z,17.35
2022-10-19T21:38:52.703Z,17.25
2022-10-19T21:41:23.798Z,17.21
2022-10-19T21:43:54.385Z,17.23
2022-10-19T21:46:22.975Z,17.21
2022-10-19T21:48:51.514Z,17.19
2022-10-19T21:51:27.681Z,17.19
2022-10-19T21:53:55.632Z,17.17
2022-10-19T21:56:22.795Z,17.11
2022-10-19T21:58:53.737Z,17.03
2022-10-19T22:01:24.500Z,16.95
2022-10-19T22:03:56.141Z,16.90
2022-10-19T22:06:23.829Z,16.91
2022-10-19T22:08:51.170Z,16.93
2022-10-19T22:11:18.675Z,16.99
2022-10-19T22:13:46.198Z,16.97
2022-10-19T22:16:13.271Z,16.93
2022-10-19T22:18:40.439Z,16.94
2022-10-19T22:21:09.294Z,16.86
2022-10-19T22:23:36.553Z,16.86
2022-10-19T22:26:11.435Z,16.86
2022-10-19T22:28:38.604Z,16.82
2022-10-19T22:31:05.784Z,16.76
2022-10-19T22:33:34.072Z,16.72
2022-10-19T22:36:02.119Z,16.72
2022-10-19T22:38:29.202Z,16.67
2022-10-19T22:40:56.295Z,16.66
2022-10-19T22:43:23.355Z,16.68
2022-10-19T22:45:50.417Z,16.65
2022-10-19T22:48:18.081Z,16.64
2022-10-19T22:50:45.655Z,16.62
2022-10-19T22:53:13.128Z,16.62
2022-10-19T22:55:40.192Z,16.60
2022-10-19T22:58:08.257Z,16.59
2022-10-19T23:00:35.943Z,16.55
2022-10-19T23:03:03.031Z,16.56
2022-10-19T23:05:30.220Z,16.60
2022-10-19T23:07:57.315Z,16.49
2022-10-19T23:10:24.494Z,16.18
2022-10-19T23:12:51.916Z,16.25
2022-10-19T23:15:19.333Z,16.32
2022-10-19T23:17:46.778Z,16.37
2022-10-19T23:20:14.059Z,16.45
2022-10-19T23:22:41.153Z,16.51
2022-10-19T23:25:08.687Z,16.57
2022-10-19T23:27:36.119Z,16.57
2022-10-19T23:30:04.398Z,16.51
2022-10-19T23:32:31.740Z,16.55
2022-10-19T23:34:58.889Z,16.59
2022-10-19T23:37:26.073Z,16.62
2022-10-19T23:39:53.207Z,16.56
2022-10-19T23:42:21.247Z,16.50
2022-10-19T23:44:48.365Z,16.42
2022-10-19T23:47:15.496Z,16.43
2022-10-19T23:49:42.645Z,16.44
2022-10-19T23:52:09.825Z,16.42
2022-10-19T23:54:37.077Z,16.43
2022-10-19T23:57:04.449Z,16.45
2022-10-19T23:59:31.555Z,16.33
